createdAt,value
2019-06-01T00:01:26.680Z,20.19
2019-06-01T00:04:00.152Z,20.22
2019-06-01T00:06:32.537Z,20.21
2019-06-01T00:09:08.208Z,20.18
2019-06-01T00:11:41.262Z,20.15
2019-06-01T00:14:15.584Z,20.13
2019-06-01T00:16:48.096Z,20.11
2019-06-01T00:19:20.703Z,20.07
2019-06-01T00:21:54.242Z,20.06
2019-06-01T00:24:27.290Z,20.06
2019-06-01T00:26:59.665Z,20.06
2019-06-01T00:29:32.432Z,20.04
2019-06-01T00:32:04.777Z,20.04
2019-06-01T00:34:37.292Z,19.89
2019-06-01T00:37:09.649Z,19.67
2019-06-01T00:39:42.163Z,19.52
2019-06-01T00:42:14.599Z,19.40
2019-06-01T00:44:48.432Z,19.39
2019-06-01T00:47:21.091Z,19.41
2019-06-01T00:49:53.556Z,19.37
2019-06-01T00:52:25.981Z,19.30
2019-06-01T00:54:58.433Z,19.30
2019-06-01T00:57:30.789Z,19.32
2019-06-01T01:00:03.424Z,19.41
2019-06-01T01:02:36.587Z,19.89
2019-06-01T01:05:17.331Z,20.13
2019-06-01T01:07:51.146Z,20.31
2019-06-01T01:10:24.085Z,20.38
2019-06-01T01:13:06.876Z,20.34
2019-06-01T01:15:39.967Z,20.35
2019-06-01T01:18:12.441Z,20.33
2019-06-01T01:20:45.923Z,20.42
2019-06-01T01:23:18.630Z,20.41
2019-06-01T01:25:52.542Z,20.40
2019-06-01T01:28:25.263Z,20.40
2019-06-01T01:31:12.531Z,20.39
2019-06-01T01:33:31.870Z,20.38
2019-06-01T01:36:04.478Z,20.30
2019-06-01T01:38:36.844Z,20.27
2019-06-01T01:41:10.719Z,20.26
2019-06-01T01:43:43.084Z,20.24
2019-06-01T01:46:15.835Z,20.26
2019-06-01T01:48:48.177Z,20.23
2019-06-01T01:51:21.660Z,20.20
2019-06-01T01:53:54.697Z,20.18
2019-06-01T01:56:27.362Z,20.20
2019-06-01T01:58:59.713Z,20.20
2019-06-01T02:01:32.309Z,20.20
2019-06-01T02:04:05.178Z,20.24
2019-06-01T02:06:37.645Z,20.28
2019-06-01T02:09:09.921Z,20.30
2019-06-01T02:11:42.547Z,20.33
2019-06-01T02:14:14.908Z,20.32
2019-06-01T02:16:47.387Z,20.36
2019-06-01T02:19:19.737Z,20.42
2019-06-01T02:21:52.413Z,20.48
2019-06-01T02:24:26.676Z,20.53
2019-06-01T02:26:59.490Z,20.53
2019-06-01T02:29:31.899Z,20.53
2019-06-01T02:32:06.494Z,20.61
2019-06-01T02:34:38.650Z,20.63
2019-06-01T02:37:11.208Z,20.66
2019-06-01T02:39:43.630Z,20.69
2019-06-01T02:42:16.353Z,20.68
2019-06-01T02:44:48.709Z,20.71
2019-06-01T02:47:21.354Z,20.68
2019-06-01T02:49:55.609Z,20.88
2019-06-01T02:52:28.353Z,20.94
2019-06-01T02:55:02.194Z,21.00
2019-06-01T02:57:35.186Z,21.09
2019-06-01T03:00:08.419Z,21.20
2019-06-01T03:02:41.703Z,21.29
2019-06-01T03:05:14.180Z,21.45
2019-06-01T03:07:49.591Z,21.59
2019-06-01T03:10:22.029Z,21.67
2019-06-01T03:12:58.157Z,21.67
2019-06-01T03:15:32.651Z,21.69
2019-06-01T03:18:11.752Z,21.77
2019-06-01T03:20:47.348Z,21.83
2019-06-01T03:23:20.635Z,21.79
2019-06-01T03:25:54.809Z,21.89
2019-06-01T03:28:28.989Z,22.10
2019-06-01T03:31:03.318Z,22.21
2019-06-01T03:33:35.493Z,22.27
2019-06-01T03:36:09.079Z,22.30
2019-06-01T03:38:43.104Z,22.33
2019-06-01T03:41:15.653Z,22.39
2019-06-01T03:43:48.133Z,22.73
2019-06-01T03:46:20.577Z,22.89
2019-06-01T03:48:53.823Z,22.91
2019-06-01T03:51:26.187Z,23.03
2019-06-01T03:53:58.751Z,23.10
2019-06-01T03:56:31.177Z,23.28
2019-06-01T03:59:05.297Z,23.39
2019-06-01T04:01:38.041Z,23.47
2019-06-01T04:04:11.273Z,23.51
2019-06-01T04:06:43.847Z,23.59
2019-06-01T04:09:16.407Z,23.80
2019-06-01T04:11:48.849Z,23.82
2019-06-01T04:14:21.406Z,23.84
2019-06-01T04:16:53.775Z,24.02
2019-06-01T04:19:26.398Z,24.12
2019-06-01T04:21:58.733Z,24.38
2019-06-01T04:24:31.290Z,24.68
2019-06-01T04:27:04.147Z,24.92
2019-06-01T04:29:37.056Z,25.12
2019-06-01T04:32:10.617Z,25.41
2019-06-01T04:34:43.443Z,25.69
2019-06-01T04:37:15.879Z,26.01
2019-06-01T04:39:48.436Z,26.22
2019-06-01T04:42:20.859Z,26.05
2019-06-01T04:44:53.408Z,26.23
2019-06-01T04:47:25.837Z,26.19
2019-06-01T04:49:58.382Z,26.37
2019-06-01T04:52:30.828Z,26.53
2019-06-01T04:55:05.059Z,26.67
2019-06-01T04:57:37.622Z,26.80
2019-06-01T05:00:24.231Z,26.58
2019-06-01T05:02:44.786Z,26.83
2019-06-01T05:05:17.357Z,26.48
2019-06-01T05:07:49.815Z,26.81
2019-06-01T05:10:22.279Z,27.25
2019-06-01T05:12:54.628Z,27.31
2019-06-01T05:15:27.174Z,27.44
2019-06-01T05:17:59.738Z,27.48
2019-06-01T05:20:32.267Z,27.27
2019-06-01T05:23:04.782Z,27.61
2019-06-01T05:25:37.243Z,27.84
2019-06-01T05:28:09.612Z,27.67
2019-06-01T05:30:42.225Z,27.97
2019-06-01T05:33:30.981Z,28.06
2019-06-01T05:35:48.992Z,28.21
2019-06-01T05:38:21.336Z,28.09
2019-06-01T05:40:53.903Z,27.77
2019-06-01T05:43:26.260Z,27.65
2019-06-01T05:45:58.833Z,27.80
2019-06-01T05:48:31.210Z,27.99
2019-06-01T05:51:03.825Z,28.04
2019-06-01T05:53:36.199Z,28.04
2019-06-01T05:56:08.691Z,28.30
2019-06-01T05:58:41.055Z,28.92
2019-06-01T06:01:14.703Z,28.90
2019-06-01T06:03:47.373Z,29.40
2019-06-01T06:06:20.521Z,29.17
2019-06-01T06:08:52.969Z,29.51
2019-06-01T06:11:25.575Z,29.85
2019-06-01T06:13:57.990Z,29.84
2019-06-01T06:16:30.496Z,29.65
2019-06-01T06:19:02.854Z,29.68
2019-06-01T06:21:35.411Z,30.09
2019-06-01T06:24:07.801Z,30.32
2019-06-01T06:26:40.359Z,30.37
2019-06-01T06:29:12.962Z,30.64
2019-06-01T06:31:45.544Z,30.77
2019-06-01T06:34:18.004Z,30.52
2019-06-01T06:36:51.618Z,31.24
2019-06-01T06:39:24.705Z,31.41
2019-06-01T06:41:57.201Z,31.25
2019-06-01T06:44:29.541Z,31.41
2019-06-01T06:47:02.044Z,31.60
2019-06-01T06:49:34.474Z,31.75
2019-06-01T06:52:06.999Z,32.02
2019-06-01T06:54:39.375Z,31.70
2019-06-01T06:57:12.935Z,31.36
2019-06-01T06:59:45.306Z,31.81
2019-06-01T07:02:18.753Z,32.20
2019-06-01T07:04:51.531Z,31.86
2019-06-01T07:07:28.687Z,31.80
2019-06-01T07:10:01.037Z,31.77
2019-06-01T07:12:33.619Z,31.98
2019-06-01T07:15:06.881Z,32.61
2019-06-01T07:17:39.455Z,32.66
2019-06-01T07:20:12.674Z,32.47
2019-06-01T07:22:45.263Z,32.59
2019-06-01T07:25:18.278Z,32.49
2019-06-01T07:27:50.825Z,32.52
2019-06-01T07:30:24.246Z,32.45
2019-06-01T07:32:56.933Z,31.93
2019-06-01T07:35:29.304Z,32.75
2019-06-01T07:38:01.774Z,33.28
2019-06-01T07:40:34.149Z,33.66
2019-06-01T07:43:06.714Z,33.49
2019-06-01T07:45:39.069Z,33.98
2019-06-01T07:48:11.565Z,34.29
2019-06-01T07:50:45.259Z,33.93
2019-06-01T07:53:17.757Z,34.06
2019-06-01T07:55:50.255Z,33.68
2019-06-01T07:58:22.621Z,33.16
2019-06-01T08:00:55.043Z,33.32
2019-06-01T08:03:30.906Z,33.25
2019-06-01T08:06:01.667Z,33.67
2019-06-01T08:08:34.219Z,34.04
2019-06-01T08:11:06.605Z,34.27
2019-06-01T08:13:40.857Z,33.95
2019-06-01T08:16:13.313Z,34.23
2019-06-01T08:18:45.882Z,34.19
2019-06-01T08:21:19.680Z,34.68
2019-06-01T08:23:52.218Z,34.97
2019-06-01T08:26:24.591Z,33.89
2019-06-01T08:28:57.060Z,33.85
2019-06-01T08:31:31.836Z,33.37
2019-06-01T08:34:04.046Z,33.45
2019-06-01T08:36:36.509Z,33.40
2019-06-01T08:39:09.072Z,33.21
2019-06-01T08:41:41.458Z,33.29
2019-06-01T08:44:13.927Z,33.35
2019-06-01T08:46:47.164Z,33.45
2019-06-01T08:49:19.660Z,33.73
2019-06-01T08:51:54.227Z,33.57
2019-06-01T08:54:28.136Z,33.83
2019-06-01T08:57:00.625Z,33.87
2019-06-01T08:59:34.584Z,33.85
2019-06-01T09:02:08.136Z,34.21
2019-06-01T09:04:40.656Z,33.77
2019-06-01T09:07:13.025Z,33.59
2019-06-01T09:09:46.465Z,33.28
2019-06-01T09:12:18.799Z,33.16
2019-06-01T09:14:52.599Z,33.78
2019-06-01T09:17:25.363Z,34.23
2019-06-01T09:19:57.910Z,33.97
2019-06-01T09:22:30.059Z,33.99
2019-06-01T09:25:02.634Z,33.97
2019-06-01T09:27:36.118Z,33.97
2019-06-01T09:30:09.278Z,33.94
2019-06-01T09:32:41.514Z,33.91
2019-06-01T09:35:13.947Z,34.03
2019-06-01T09:37:46.325Z,34.56
2019-06-01T09:40:19.928Z,34.25
2019-06-01T09:42:52.333Z,34.69
2019-06-01T09:45:25.547Z,34.60
2019-06-01T09:47:57.990Z,34.19
2019-06-01T09:50:31.333Z,33.76
2019-06-01T09:53:04.243Z,33.69
2019-06-01T09:55:36.531Z,34.04
2019-06-01T09:58:09.094Z,33.43
2019-06-01T10:00:43.782Z,33.78
2019-06-01T10:03:15.941Z,33.84
2019-06-01T10:06:01.228Z,34.27
2019-06-01T10:08:23.155Z,34.39
2019-06-01T10:10:59.202Z,33.98
2019-06-01T10:13:32.923Z,32.92
2019-06-01T10:16:05.548Z,33.10
2019-06-01T10:18:38.953Z,33.48
2019-06-01T10:21:27.742Z,33.30
2019-06-01T10:24:00.152Z,33.47
2019-06-01T10:26:34.020Z,33.57
2019-06-01T10:29:06.629Z,33.57
2019-06-01T10:31:40.598Z,33.75
2019-06-01T10:34:13.070Z,33.86
2019-06-01T10:36:45.448Z,34.41
2019-06-01T10:39:19.721Z,34.99
2019-06-01T10:41:53.807Z,35.36
2019-06-01T10:44:26.223Z,34.82
2019-06-01T10:46:58.537Z,35.30
2019-06-01T10:49:31.806Z,35.14
2019-06-01T10:52:05.033Z,34.59
2019-06-01T10:54:38.315Z,34.52
2019-06-01T10:57:10.865Z,34.03
2019-06-01T10:59:43.334Z,33.96
2019-06-01T11:02:16.775Z,33.96
2019-06-01T11:04:49.256Z,34.26
2019-06-01T11:07:21.734Z,34.28
2019-06-01T11:09:54.109Z,34.60
2019-06-01T11:12:26.421Z,34.43
2019-06-01T11:14:58.802Z,34.48
2019-06-01T11:17:31.099Z,34.44
2019-06-01T11:20:04.881Z,34.72
2019-06-01T11:22:37.583Z,34.96
2019-06-01T11:25:10.119Z,35.12
2019-06-01T11:27:44.076Z,35.35
2019-06-01T11:30:16.905Z,34.98
2019-06-01T11:32:50.781Z,34.00
2019-06-01T11:35:23.489Z,33.61
2019-06-01T11:37:55.859Z,33.47
2019-06-01T11:40:28.432Z,33.59
2019-06-01T11:43:01.866Z,34.05
2019-06-01T11:45:34.857Z,34.42
2019-06-01T11:48:07.484Z,34.47
2019-06-01T11:50:43.116Z,34.39
2019-06-01T11:53:16.947Z,33.54
2019-06-01T11:55:49.327Z,33.15
2019-06-01T11:58:21.900Z,33.50
2019-06-01T12:00:54.931Z,34.00
2019-06-01T12:03:27.169Z,34.41
2019-06-01T12:05:59.884Z,34.22
2019-06-01T12:08:34.120Z,34.86
2019-06-01T12:11:06.289Z,35.51
2019-06-01T12:13:42.290Z,35.29
2019-06-01T12:16:14.757Z,35.28
2019-06-01T12:18:47.024Z,35.50
2019-06-01T12:21:19.333Z,34.46
2019-06-01T12:23:51.578Z,34.42
2019-06-01T12:26:23.921Z,34.43
2019-06-01T12:28:57.772Z,33.92
2019-06-01T12:31:43.809Z,34.04
2019-06-01T12:34:17.001Z,34.57
2019-06-01T12:36:49.459Z,35.26
2019-06-01T12:39:22.551Z,35.00
2019-06-01T12:41:54.961Z,34.97
2019-06-01T12:44:27.295Z,34.44
2019-06-01T12:46:59.683Z,34.50
2019-06-01T12:49:32.033Z,34.77
2019-06-01T12:52:06.610Z,34.49
2019-06-01T12:54:38.199Z,34.13
2019-06-01T12:57:10.492Z,34.03
2019-06-01T12:59:43.254Z,33.97
2019-06-01T13:02:16.058Z,33.89
2019-06-01T13:04:49.246Z,34.21
2019-06-01T13:07:21.735Z,33.49
2019-06-01T13:09:54.542Z,33.57
2019-06-01T13:12:27.004Z,33.55
2019-06-01T13:14:59.313Z,33.47
2019-06-01T13:17:31.776Z,33.58
2019-06-01T13:20:08.996Z,33.50
2019-06-01T13:22:41.377Z,33.41
2019-06-01T13:25:15.394Z,33.32
2019-06-01T13:27:48.848Z,33.22
2019-06-01T13:30:21.438Z,32.99
2019-06-01T13:32:53.744Z,32.74
2019-06-01T13:35:26.579Z,32.82
2019-06-01T13:38:11.597Z,33.11
2019-06-01T13:40:33.569Z,33.33
2019-06-01T13:43:07.426Z,33.57
2019-06-01T13:45:41.007Z,33.26
2019-06-01T13:48:13.251Z,32.98
2019-06-01T13:50:45.807Z,32.81
2019-06-01T13:53:19.321Z,32.84
2019-06-01T13:55:52.800Z,32.83
2019-06-01T13:58:25.420Z,32.83
2019-06-01T14:00:57.927Z,32.68
2019-06-01T14:03:31.354Z,32.32
2019-06-01T14:06:05.360Z,32.37
2019-06-01T14:08:37.635Z,32.45
2019-06-01T14:11:10.141Z,32.49
2019-06-01T14:13:42.683Z,32.28
2019-06-01T14:16:15.140Z,32.36
2019-06-01T14:18:47.721Z,32.39
2019-06-01T14:21:20.487Z,32.38
2019-06-01T14:23:54.104Z,32.26
2019-06-01T14:26:26.603Z,32.19
2019-06-01T14:28:58.941Z,32.23
2019-06-01T14:31:31.440Z,32.25
2019-06-01T14:34:03.791Z,32.21
2019-06-01T14:36:36.190Z,31.97
2019-06-01T14:39:08.996Z,31.83
2019-06-01T14:41:41.517Z,31.84
2019-06-01T14:44:13.926Z,31.88
2019-06-01T14:46:55.116Z,31.88
2019-06-01T14:49:20.846Z,31.85
2019-06-01T14:51:53.681Z,31.77
2019-06-01T14:54:26.312Z,31.73
2019-06-01T14:56:58.756Z,31.76
2019-06-01T14:59:31.118Z,31.67
2019-06-01T15:02:03.761Z,31.65
2019-06-01T15:04:37.567Z,31.67
2019-06-01T15:07:10.038Z,31.60
2019-06-01T15:09:42.526Z,31.60
2019-06-01T15:12:15.556Z,31.57
2019-06-01T15:14:48.503Z,31.55
2019-06-01T15:17:25.098Z,31.43
2019-06-01T15:19:58.311Z,31.37
2019-06-01T15:22:31.083Z,31.34
2019-06-01T15:25:04.957Z,31.25
2019-06-01T15:27:37.560Z,31.35
2019-06-01T15:30:14.303Z,31.34
2019-06-01T15:32:46.866Z,31.26
2019-06-01T15:35:19.294Z,31.17
2019-06-01T15:37:56.234Z,31.13
2019-06-01T15:40:27.578Z,31.08
2019-06-01T15:43:01.424Z,31.03
2019-06-01T15:45:34.470Z,30.96
2019-06-01T15:48:06.961Z,30.85
2019-06-01T15:50:39.633Z,30.75
2019-06-01T15:53:12.413Z,30.71
2019-06-01T15:55:44.757Z,30.65
2019-06-01T15:58:17.321Z,30.42
2019-06-01T16:00:49.685Z,30.32
2019-06-01T16:03:22.223Z,30.18
2019-06-01T16:05:55.012Z,29.97
2019-06-01T16:08:29.456Z,29.78
2019-06-01T16:11:04.643Z,29.60
2019-06-01T16:13:36.124Z,29.41
2019-06-01T16:16:08.629Z,29.24
2019-06-01T16:18:41.090Z,29.13
2019-06-01T16:21:15.193Z,29.00
2019-06-01T16:23:50.576Z,28.87
2019-06-01T16:26:23.155Z,28.71
2019-06-01T16:28:56.329Z,28.57
2019-06-01T16:31:30.621Z,28.48
2019-06-01T16:34:03.192Z,28.41
2019-06-01T16:36:36.198Z,28.34
2019-06-01T16:39:10.087Z,28.26
2019-06-01T16:41:42.714Z,28.15
2019-06-01T16:44:19.764Z,28.04
2019-06-01T16:46:50.884Z,28.01
2019-06-01T16:49:27.241Z,27.94
2019-06-01T16:52:01.154Z,27.86
2019-06-01T16:54:35.483Z,27.81
2019-06-01T16:57:09.441Z,27.78
2019-06-01T16:59:42.003Z,27.73
2019-06-01T17:02:14.386Z,27.73
2019-06-01T17:04:48.486Z,27.71
2019-06-01T17:07:20.915Z,27.70
2019-06-01T17:09:53.496Z,27.66
2019-06-01T17:12:25.923Z,27.58
2019-06-01T17:15:00.830Z,27.55
2019-06-01T17:17:34.607Z,27.53
2019-06-01T17:20:09.469Z,27.52
2019-06-01T17:22:42.173Z,27.47
2019-06-01T17:25:14.909Z,27.41
2019-06-01T17:27:47.347Z,27.38
2019-06-01T17:30:19.925Z,27.38
2019-06-01T17:32:52.363Z,27.36
2019-06-01T17:35:31.434Z,27.33
2019-06-01T17:38:05.005Z,27.31
2019-06-01T17:40:43.183Z,27.23
2019-06-01T17:43:14.842Z,27.25
2019-06-01T17:45:47.584Z,27.20
2019-06-01T17:48:26.644Z,27.20
2019-06-01T17:50:55.409Z,27.17
2019-06-01T17:53:27.939Z,27.18
2019-06-01T17:56:01.861Z,27.18
2019-06-01T17:58:34.703Z,27.15
2019-06-01T18:01:08.118Z,27.12
2019-06-01T18:03:42.733Z,27.19
2019-06-01T18:06:17.406Z,27.33
2019-06-01T18:08:51.539Z,27.39
2019-06-01T18:11:24.276Z,27.36
2019-06-01T18:13:58.147Z,27.38
2019-06-01T18:16:33.160Z,27.29
2019-06-01T18:19:08.410Z,27.34
2019-06-01T18:21:42.219Z,27.40
2019-06-01T18:24:18.203Z,27.32
2019-06-01T18:26:51.100Z,27.35
2019-06-01T18:29:24.327Z,27.28
2019-06-01T18:31:58.765Z,27.30
2019-06-01T18:34:31.902Z,27.32
2019-06-01T18:37:11.499Z,27.29
2019-06-01T18:39:48.236Z,27.26
2019-06-01T18:42:24.148Z,27.23
2019-06-01T18:44:58.761Z,27.26
2019-06-01T18:47:32.756Z,27.29
2019-06-01T18:50:09.892Z,27.26
2019-06-01T18:52:44.588Z,27.35
2019-06-01T18:55:18.880Z,27.26
2019-06-01T18:57:54.502Z,27.30
2019-06-01T19:00:27.691Z,27.38
2019-06-01T19:03:00.723Z,27.38
2019-06-01T19:05:35.025Z,27.29
2019-06-01T19:08:09.286Z,27.20
2019-06-01T19:10:42.730Z,27.21
2019-06-01T19:13:16.011Z,27.13
2019-06-01T19:15:50.839Z,27.12
2019-06-01T19:18:24.047Z,27.10
2019-06-01T19:20:57.045Z,27.15
2019-06-01T19:23:30.346Z,27.23
2019-06-01T19:26:03.468Z,27.20
2019-06-01T19:28:36.456Z,27.12
2019-06-01T19:31:11.122Z,27.09
2019-06-01T19:33:44.400Z,27.12
2019-06-01T19:36:21.993Z,27.05
2019-06-01T19:38:55.826Z,26.74
2019-06-01T19:41:43.799Z,26.27
2019-06-01T19:44:02.914Z,25.81
2019-06-01T19:46:35.426Z,25.42
2019-06-01T19:49:10.945Z,25.19
2019-06-01T19:51:44.307Z,24.67
2019-06-01T19:54:17.081Z,24.13
2019-06-01T19:56:50.103Z,23.55
2019-06-01T19:59:22.955Z,22.97
2019-06-01T20:01:56.095Z,22.60
2019-06-01T20:04:28.845Z,22.32
2019-06-01T20:07:02.827Z,22.10
2019-06-01T20:09:35.263Z,22.01
2019-06-01T20:12:12.881Z,21.90
2019-06-01T20:14:41.858Z,21.79
2019-06-01T20:17:15.552Z,21.76
2019-06-01T20:19:48.075Z,21.72
2019-06-01T20:22:21.289Z,21.67
2019-06-01T20:24:55.337Z,21.52
2019-06-01T20:27:28.640Z,21.42
2019-06-01T20:30:01.084Z,21.37
2019-06-01T20:32:34.103Z,21.38
2019-06-01T20:35:06.725Z,21.38
2019-06-01T20:37:39.458Z,21.41
2019-06-01T20:40:14.240Z,21.32
2019-06-01T20:42:46.875Z,21.14
2019-06-01T20:45:20.927Z,20.87
2019-06-01T20:47:53.609Z,20.59
2019-06-01T20:50:34.926Z,20.44
2019-06-01T20:53:07.520Z,20.31
2019-06-01T20:55:39.959Z,20.17
2019-06-01T20:58:13.747Z,19.98
2019-06-01T21:00:46.563Z,19.81
2019-06-01T21:03:19.760Z,19.67
2019-06-01T21:05:52.405Z,19.57
2019-06-01T21:08:24.918Z,19.47
2019-06-01T21:10:57.459Z,19.43
2019-06-01T21:13:29.964Z,19.44
2019-06-01T21:16:02.349Z,19.43
2019-06-01T21:18:34.849Z,19.45
2019-06-01T21:21:09.384Z,19.50
2019-06-01T21:23:41.895Z,19.50
2019-06-01T21:26:18.933Z,19.51
2019-06-01T21:28:51.596Z,19.50
2019-06-01T21:31:25.378Z,19.44
2019-06-01T21:33:58.253Z,19.36
2019-06-01T21:36:30.775Z,19.31
2019-06-01T21:39:03.820Z,19.24
2019-06-01T21:41:37.710Z,19.13
2019-06-01T21:44:10.295Z,19.10
2019-06-01T21:46:42.762Z,19.06
2019-06-01T21:49:15.618Z,19.08
2019-06-01T21:51:48.198Z,19.05
2019-06-01T21:54:21.970Z,19.04
2019-06-01T21:56:55.605Z,19.02
2019-06-01T21:59:28.168Z,19.04
2019-06-01T22:02:00.608Z,19.02
2019-06-01T22:04:33.094Z,18.97
2019-06-01T22:07:06.542Z,18.96
2019-06-01T22:09:39.057Z,18.94
2019-06-01T22:12:11.514Z,18.92
2019-06-01T22:14:44.057Z,18.90
2019-06-01T22:17:17.491Z,18.87
2019-06-01T22:19:50.099Z,18.83
2019-06-01T22:22:23.802Z,18.84
2019-06-01T22:24:56.438Z,18.80
2019-06-01T22:27:28.806Z,18.77
2019-06-01T22:30:01.214Z,18.76
2019-06-01T22:32:34.858Z,18.72
2019-06-01T22:35:09.747Z,18.68
2019-06-01T22:37:42.179Z,18.69
2019-06-01T22:40:15.296Z,18.67
2019-06-01T22:42:47.757Z,18.68
2019-06-01T22:45:20.171Z,18.66
2019-06-01T22:47:52.527Z,18.63
2019-06-01T22:50:24.971Z,18.61
2019-06-01T22:52:57.433Z,18.60
2019-06-01T22:55:29.928Z,18.63
2019-06-01T22:58:02.375Z,18.67
2019-06-01T23:00:34.867Z,18.68
2019-06-01T23:03:08.081Z,18.67
2019-06-01T23:05:41.815Z,18.72
2019-06-01T23:08:14.226Z,18.80
2019-06-01T23:10:46.650Z,18.87
2019-06-01T23:13:19.077Z,18.89
2019-06-01T23:15:51.567Z,18.89
2019-06-01T23:18:24.176Z,18.94
2019-06-01T23:20:56.568Z,18.92
2019-06-01T23:23:30.149Z,18.90
2019-06-01T23:26:02.924Z,18.90
2019-06-01T23:28:38.649Z,18.89
2019-06-01T23:31:09.498Z,18.88
2019-06-01T23:33:41.881Z,18.85
2019-06-01T23:36:14.484Z,18.86
2019-06-01T23:38:46.915Z,18.82
2019-06-01T23:41:19.384Z,18.83
2019-06-01T23:43:51.763Z,18.83
2019-06-01T23:46:24.924Z,18.77
2019-06-01T23:48:57.597Z,18.72
2019-06-01T23:51:31.809Z,18.66
2019-06-01T23:54:04.365Z,18.64
2019-06-01T23:56:36.785Z,18.57
2019-06-01T23:59:09.133Z,18.56
